Time;durP1;ratioP1;P1;durP2;ratioP2;P2;SDS_P1;SDS_P2;PMS_P1;PMS_P2;Temp;Humidity;BMP_temperature;BMP_pressure;BME280_temperature;BME280_humidity;BME280_pressure;Samples;Min_cycle;Max_cycle;Signal;HPM_P1;HPM_P2
2022/01/28 00:03:01;;;;;;;1300.50;136.70;;;0.30;99.90;;;;;;4945905;29;20135;-92
2022/01/28 00:05:31;;;;;;;1397.63;142.57;;;0.20;99.90;;;;;;4939005;29;20027;-93
2022/01/28 00:07:57;;;;;;;1504.75;148.82;;;0.20;99.90;;;;;;4938872;29;20044;-91
2022/01/28 00:14:24;;;;;;;1410.05;147.68;;;0.20;99.90;;;;;;4933611;29;20051;-91
2022/01/28 00:36:59;;;;;;;476.63;70.45;;;0.30;99.90;;;;;;4954586;29;20146;-92
2022/01/28 00:39:28;;;;;;;1307.20;130.23;;;0.30;99.90;;;;;;4922810;29;20039;-92
2022/01/28 00:42:09;;;;;;;263.05;59.22;;;0.20;99.90;;;;;;4955247;29;20725;-92
2022/01/28 00:45:01;;;;;;;397.20;71.57;;;0.30;99.90;;;;;;4936963;29;20118;-93
2022/01/28 00:47:29;;;;;;;272.38;59.75;;;0.30;99.90;;;;;;4938533;29;20032;-93
2022/01/28 00:50:05;;;;;;;212.50;53.55;;;0.30;99.90;;;;;;4937410;29;20099;-92
2022/01/28 00:52:35;;;;;;;957.55;103.72;;;0.30;99.90;;;;;;4937305;29;20055;-92
2022/01/28 00:55:01;;;;;;;902.85;99.75;;;0.30;99.90;;;;;;4937183;29;20476;-92
2022/01/28 00:57:30;;;;;;;1315.30;135.35;;;0.20;99.90;;;;;;4937173;29;20504;-92
2022/01/28 00:59:59;;;;;;;559.22;71.97;;;0.30;99.90;;;;;;4937571;29;20043;-92
2022/01/28 01:02:27;;;;;;;234.60;59.53;;;0.30;99.90;;;;;;4955332;29;20036;-92
2022/01/28 01:04:59;;;;;;;234.88;58.50;;;0.30;99.90;;;;;;4941217;29;20031;-92
2022/01/28 01:07:31;;;;;;;299.75;67.15;;;0.30;99.90;;;;;;4939379;29;20032;-90
2022/01/28 01:10:02;;;;;;;277.88;62.70;;;0.30;99.90;;;;;;4938155;29;20028;-93
2022/01/28 01:12:32;;;;;;;445.27;75.68;;;0.30;99.90;;;;;;4937680;29;20047;-93
2022/01/28 01:15:04;;;;;;;391.00;70.20;;;0.40;99.90;;;;;;4938874;29;20053;-93
2022/01/28 01:17:37;;;;;;;255.90;58.50;;;0.30;99.90;;;;;;4938415;29;20035;-92
2022/01/28 01:22:41;;;;;;;224.38;59.60;;;0.30;99.90;;;;;;4953905;28;20040;-91
2022/01/28 01:25:18;;;;;;;625.13;175.10;;;0.40;99.90;;;;;;4953612;29;20039;-92
2022/01/28 01:27:48;;;;;;;242.07;57.78;;;0.40;99.90;;;;;;4936955;29;20078;-92
2022/01/28 01:30:17;;;;;;;254.57;59.80;;;0.40;99.90;;;;;;4936760;29;20059;-92
2022/01/28 01:32:44;;;;;;;223.73;58.88;;;0.40;99.90;;;;;;4936646;29;20032;-92
2022/01/28 01:35:10;;;;;;;224.65;58.38;;;0.40;99.90;;;;;;4920913;29;20035;-92
2022/01/28 01:37:38;;;;;;;261.60;60.03;;;0.40;99.90;;;;;;4936618;29;20031;-92
2022/01/28 01:40:12;;;;;;;269.88;64.15;;;0.40;99.90;;;;;;4936742;29;20044;-92
2022/01/28 01:42:52;;;;;;;267.48;63.92;;;0.40;99.90;;;;;;4936791;29;20035;-91
2022/01/28 01:53:29;;;;;;;693.92;97.25;;;0.40;99.90;;;;;;4952175;29;20028;-92
2022/01/28 01:59:30;;;;;;;223.90;58.55;;;0.40;99.90;;;;;;4937136;29;20070;-92
2022/01/28 02:01:56;;;;;;;279.45;64.18;;;0.40;99.90;;;;;;4936327;29;20031;-91
2022/01/28 02:04:23;;;;;;;223.68;58.45;;;0.40;99.90;;;;;;4936014;29;20103;-92
2022/01/28 02:07:05;;;;;;;283.20;62.58;;;0.40;99.90;;;;;;4936020;29;20039;-91
2022/01/28 02:09:31;;;;;;;200.23;56.55;;;0.40;99.90;;;;;;4936077;29;20044;-91
2022/01/28 02:11:57;;;;;;;214.30;56.63;;;0.50;99.90;;;;;;4935003;29;20036;-90
2022/01/28 02:14:23;;;;;;;221.00;58.92;;;0.50;99.90;;;;;;4935371;29;20031;-90
2022/01/28 02:16:49;;;;;;;241.50;58.05;;;0.50;99.90;;;;;;4935747;29;20038;-90
2022/01/28 02:19:20;;;;;;;286.75;63.17;;;0.50;99.90;;;;;;4935859;29;20126;-93
2022/01/28 02:21:50;;;;;;;216.90;57.97;;;0.50;99.90;;;;;;4936377;29;20040;-90
2022/01/28 02:24:21;;;;;;;219.25;56.92;;;0.50;99.90;;;;;;4935404;29;20231;-91
2022/01/28 02:26:47;;;;;;;194.43;54.28;;;0.50;99.90;;;;;;4935788;29;20039;-91
2022/01/28 02:29:26;;;;;;;229.20;56.80;;;0.50;99.90;;;;;;4936181;29;20066;-91
2022/01/28 02:31:53;;;;;;;217.10;54.88;;;0.50;99.90;;;;;;4935555;29;20054;-92
2022/01/28 02:34:19;;;;;;;209.00;55.70;;;0.50;99.90;;;;;;4935590;29;20603;-91
2022/01/28 02:36:44;;;;;;;192.40;53.70;;;0.60;99.90;;;;;;4935577;29;20114;-92
2022/01/28 02:39:11;;;;;;;220.93;61.22;;;0.60;99.90;;;;;;4935551;29;20024;-92
2022/01/28 02:41:41;;;;;;;195.73;55.88;;;0.60;99.90;;;;;;4935295;29;20039;-91
2022/01/28 02:44:20;;;;;;;227.77;60.72;;;0.50;99.90;;;;;;4935461;29;20055;-91
2022/01/28 02:47:00;;;;;;;211.05;57.08;;;0.60;99.90;;;;;;4935289;29;20495;-90
2022/01/28 02:49:29;;;;;;;222.48;61.42;;;0.60;99.90;;;;;;4935060;29;20062;-92
2022/01/28 02:51:58;;;;;;;254.35;63.15;;;0.50;99.90;;;;;;4935171;29;20032;-91
2022/01/28 02:54:23;;;;;;;248.48;62.60;;;0.50;99.90;;;;;;4935413;29;20051;-91
2022/01/28 02:56:52;;;;;;;276.92;67.07;;;0.50;99.90;;;;;;4935046;29;20083;-91
2022/01/28 02:59:19;;;;;;;257.13;64.15;;;0.50;99.90;;;;;;4935967;29;20839;-91
2022/01/28 03:01:46;;;;;;;230.82;62.30;;;0.50;99.90;;;;;;4934801;29;20087;-91
2022/01/28 03:04:26;;;;;;;243.73;62.60;;;0.50;99.90;;;;;;4934576;29;20039;-90
2022/01/28 03:06:52;;;;;;;251.80;64.22;;;0.60;99.90;;;;;;4935016;29;20118;-92
2022/01/28 03:09:20;;;;;;;289.98;65.82;;;0.60;99.90;;;;;;4934648;29;20044;-91
2022/01/28 03:11:59;;;;;;;213.35;57.40;;;0.60;99.90;;;;;;4935110;29;20090;-91
2022/01/28 03:14:47;;;;;;;247.57;60.40;;;0.50;99.90;;;;;;4919080;29;20035;-91
2022/01/28 03:17:37;;;;;;;233.45;60.10;;;0.60;99.90;;;;;;4934475;29;20043;-91
2022/01/28 03:22:45;;;;;;;207.35;53.10;;;0.60;99.90;;;;;;4950954;29;20114;-93
2022/01/28 03:25:12;;;;;;;187.85;51.63;;;0.50;99.90;;;;;;4934688;29;20032;-91
2022/01/28 03:27:50;;;;;;;177.43;50.42;;;0.60;99.90;;;;;;4935071;29;20053;-92
2022/01/28 03:30:16;;;;;;;170.55;49.15;;;0.50;99.90;;;;;;4934414;29;20036;-91
2022/01/28 03:32:42;;;;;;;235.48;52.17;;;0.70;99.90;;;;;;4934437;29;20039;-90
2022/01/28 03:35:10;;;;;;;208.88;54.28;;;0.60;99.90;;;;;;4934502;29;20043;-90
2022/01/28 03:37:36;;;;;;;187.82;50.10;;;0.60;99.90;;;;;;4935026;29;20032;-92
2022/01/28 03:40:07;;;;;;;192.38;51.28;;;0.60;99.90;;;;;;4934671;29;20039;-92
2022/01/28 03:42:35;;;;;;;175.52;48.72;;;0.60;99.90;;;;;;4934197;29;20526;-91
2022/01/28 03:45:01;;;;;;;188.00;50.00;;;0.60;99.90;;;;;;4952250;28;20118;-89
2022/01/28 03:47:27;;;;;;;191.90;54.28;;;0.60;99.90;;;;;;4937385;29;20042;-91
2022/01/28 03:49:53;;;;;;;207.88;55.65;;;0.70;99.90;;;;;;4937909;29;20031;-91
2022/01/28 03:52:19;;;;;;;185.80;52.55;;;0.70;99.90;;;;;;4938286;29;20032;-90
2022/01/28 03:54:45;;;;;;;183.95;51.70;;;0.70;99.90;;;;;;4938164;29;20503;-91
2022/01/28 03:57:10;;;;;;;177.50;48.92;;;0.60;99.90;;;;;;4937974;29;20023;-92
2022/01/28 03:59:36;;;;;;;214.73;54.13;;;0.70;99.90;;;;;;4937805;29;20031;-92
2022/01/28 04:02:10;;;;;;;190.30;52.35;;;0.60;99.90;;;;;;4938016;29;20044;-91
2022/01/28 04:12:46;;;;;;;201.82;55.10;;;0.70;99.90;;;;;;4953635;29;20032;-92
2022/01/28 04:17:44;;;;;;;219.43;52.92;;;0.70;99.90;;;;;;4953875;29;20066;-90
2022/01/28 04:20:18;;;;;;;207.30;54.47;;;0.70;99.90;;;;;;4953663;29;20031;-92
2022/01/28 04:22:44;;;;;;;214.48;53.92;;;0.60;99.90;;;;;;4937607;29;20027;-89
2022/01/28 04:25:11;;;;;;;215.20;57.05;;;0.60;99.90;;;;;;4937404;29;20502;-92
2022/01/28 04:27:37;;;;;;;211.75;56.63;;;0.60;99.90;;;;;;4937402;29;20039;-91
2022/01/28 04:30:03;;;;;;;217.23;58.63;;;0.60;99.90;;;;;;4937438;29;20148;-91
2022/01/28 04:32:30;;;;;;;219.57;54.95;;;0.60;99.90;;;;;;4953339;29;20035;-89
2022/01/28 04:34:58;;;;;;;215.35;55.55;;;0.70;99.90;;;;;;4937428;29;20130;-90
2022/01/28 04:40:33;;;;;;;244.55;57.75;;;0.60;99.90;;;;;;4898341;29;20119;-90
2022/01/28 04:45:44;;;;;;;236.82;58.13;;;0.70;99.90;;;;;;4910341;29;20043;-90
2022/01/28 05:27:56;;;;;;;200.35;53.80;;;0.70;99.90;;;;;;4921325;29;20044;-90
2022/01/28 05:30:22;;;;;;;228.95;58.70;;;0.70;99.90;;;;;;4935988;29;20102;-90
2022/01/28 05:32:47;;;;;;;219.40;57.33;;;0.70;99.90;;;;;;4936035;29;20059;-92
2022/01/28 05:35:13;;;;;;;249.57;58.20;;;0.60;99.90;;;;;;4935910;29;20031;-91
2022/01/28 05:37:59;;;;;;;218.60;56.78;;;0.60;99.90;;;;;;4951974;28;20043;-89
2022/01/28 05:40:25;;;;;;;231.07;59.25;;;0.60;99.90;;;;;;4936122;29;20032;-91
2022/01/28 05:42:51;;;;;;;213.35;57.88;;;0.60;99.90;;;;;;4935679;29;20031;-90
2022/01/28 05:45:17;;;;;;;215.32;57.03;;;0.60;99.90;;;;;;4936193;29;20062;-90
2022/01/28 05:47:43;;;;;;;236.60;56.05;;;0.70;99.90;;;;;;4935409;29;20039;-90
2022/01/28 05:50:09;;;;;;;212.07;53.47;;;0.70;99.90;;;;;;4935758;29;20123;-90
2022/01/28 05:52:34;;;;;;;210.05;53.40;;;0.70;99.90;;;;;;4935938;29;20078;-90
2022/01/28 05:55:01;;;;;;;228.85;56.03;;;0.70;99.90;;;;;;4936057;29;20480;-89
2022/01/28 05:57:27;;;;;;;216.15;54.03;;;0.60;99.90;;;;;;4935161;29;20047;-90
2022/01/28 06:00:04;;;;;;;214.32;55.25;;;0.70;99.90;;;;;;4936521;29;20035;-89
2022/01/28 06:02:30;;;;;;;223.55;51.10;;;0.60;99.90;;;;;;4938387;29;20043;-89
2022/01/28 06:04:56;;;;;;;192.23;54.10;;;0.70;99.90;;;;;;4939893;29;20028;-90
2022/01/28 06:07:22;;;;;;;188.73;50.17;;;0.60;99.90;;;;;;4939365;29;20423;-90
2022/01/28 06:09:48;;;;;;;195.80;53.55;;;0.60;99.90;;;;;;4939406;29;20038;-90
2022/01/28 06:12:13;;;;;;;204.40;51.58;;;0.70;99.90;;;;;;4939314;29;20483;-90
2022/01/28 06:14:39;;;;;;;185.40;49.97;;;0.70;99.90;;;;;;4954726;29;20035;-89
2022/01/28 06:17:05;;;;;;;245.30;65.72;;;0.70;99.90;;;;;;4939187;29;20023;-90
2022/01/28 06:19:31;;;;;;;235.55;61.50;;;0.70;99.90;;;;;;4939721;29;20055;-90
2022/01/28 06:21:57;;;;;;;191.48;51.80;;;0.70;99.90;;;;;;4939176;29;20078;-90
2022/01/28 06:24:22;;;;;;;212.75;53.28;;;0.60;99.90;;;;;;4939397;29;20027;-91
2022/01/28 06:26:48;;;;;;;201.05;51.78;;;0.70;99.90;;;;;;4939257;29;20035;-89
2022/01/28 06:29:14;;;;;;;223.68;53.33;;;0.60;99.90;;;;;;4939310;29;20031;-91
2022/01/28 06:31:41;;;;;;;218.32;54.85;;;0.70;99.90;;;;;;4939059;29;20077;-90
2022/01/28 06:34:07;;;;;;;188.30;52.50;;;0.80;99.90;;;;;;4938311;29;20039;-90
2022/01/28 06:36:33;;;;;;;199.10;50.03;;;0.70;99.90;;;;;;4938271;29;20031;-89
2022/01/28 06:38:59;;;;;;;188.80;50.78;;;0.70;99.90;;;;;;4938786;29;20090;-90
2022/01/28 06:41:25;;;;;;;167.60;46.15;;;0.80;99.90;;;;;;4939223;29;20046;-89
2022/01/28 06:43:51;;;;;;;177.35;49.28;;;0.70;99.90;;;;;;4938727;29;20070;-91
2022/01/28 06:46:16;;;;;;;180.10;47.63;;;0.70;99.90;;;;;;4939199;29;20043;-89
2022/01/28 06:48:42;;;;;;;199.98;51.13;;;0.70;99.90;;;;;;4932098;29;20122;-90
2022/01/28 06:51:09;;;;;;;195.40;51.53;;;0.70;99.90;;;;;;4953313;29;20036;-90
2022/01/28 06:53:35;;;;;;;192.88;51.05;;;0.70;99.90;;;;;;4947091;28;20042;-90
2022/01/28 06:56:01;;;;;;;178.50;47.10;;;0.80;99.90;;;;;;4938426;28;20031;-91
2022/01/28 06:58:27;;;;;;;185.60;47.22;;;0.70;99.90;;;;;;4938032;29;20031;-89
2022/01/28 07:00:53;;;;;;;199.52;52.10;;;0.70;99.90;;;;;;4937866;28;20039;-90
2022/01/28 07:03:18;;;;;;;176.10;48.10;;;0.70;99.90;;;;;;4935480;28;20476;-90
2022/01/28 07:06:03;;;;;;;161.15;42.65;;;0.70;99.90;;;;;;4934661;29;20035;-89
2022/01/28 07:08:30;;;;;;;176.00;45.65;;;0.70;99.90;;;;;;4948312;29;20041;-90
2022/01/28 07:14:44;;;;;;;150.10;42.83;;;0.70;99.90;;;;;;4949123;29;20460;-89
2022/01/28 07:17:10;;;;;;;155.50;44.00;;;0.70;99.90;;;;;;4934936;29;20050;-89
2022/01/28 07:19:37;;;;;;;170.60;44.25;;;0.70;99.90;;;;;;4949114;28;20072;-89
2022/01/28 07:22:03;;;;;;;175.25;44.70;;;0.70;99.90;;;;;;4971539;28;20399;-89
2022/01/28 07:24:29;;;;;;;165.52;45.97;;;0.70;99.90;;;;;;4942143;29;20031;-89
2022/01/28 07:26:56;;;;;;;169.45;47.03;;;0.70;99.90;;;;;;4954602;29;20638;-89
2022/01/28 07:29:27;;;;;;;171.18;49.15;;;0.80;99.90;;;;;;4941369;29;20117;-89
2022/01/28 07:31:53;;;;;;;162.32;47.42;;;0.70;99.90;;;;;;4957065;29;20028;-90
2022/01/28 07:34:19;;;;;;;155.38;44.45;;;0.70;99.90;;;;;;4940831;29;20032;-89
2022/01/28 07:36:45;;;;;;;181.45;45.63;;;0.70;99.90;;;;;;4946783;29;20046;-90
2022/01/28 07:39:11;;;;;;;167.45;45.38;;;0.70;99.90;;;;;;4954678;29;20489;-89
2022/01/28 07:41:39;;;;;;;185.02;50.85;;;0.70;99.90;;;;;;4935479;29;20027;-90
2022/01/28 07:44:06;;;;;;;191.70;49.83;;;0.80;99.90;;;;;;4940364;29;20086;-91
2022/01/28 07:46:33;;;;;;;148.45;45.63;;;0.80;99.90;;;;;;4940806;29;20131;-89
2022/01/28 07:49:00;;;;;;;166.88;43.88;;;0.80;99.90;;;;;;4956941;29;20042;-90
2022/01/28 07:51:26;;;;;;;171.63;49.53;;;0.80;99.90;;;;;;4940843;29;20035;-89
2022/01/28 07:53:52;;;;;;;167.95;49.55;;;0.80;99.90;;;;;;4940837;29;20046;-91
2022/01/28 07:56:22;;;;;;;159.27;47.28;;;0.80;99.90;;;;;;4937772;29;20099;-89
2022/01/28 07:58:48;;;;;;;160.43;45.67;;;0.90;99.90;;;;;;4940908;29;20046;-91
2022/01/28 08:01:14;;;;;;;163.77;45.70;;;0.90;99.90;;;;;;4940470;29;20114;-89
2022/01/28 08:03:40;;;;;;;160.95;46.63;;;0.90;99.90;;;;;;4940453;29;20059;-90
2022/01/28 08:06:05;;;;;;;194.15;50.38;;;0.90;99.90;;;;;;4940596;29;20035;-90
2022/01/28 08:08:31;;;;;;;150.32;45.90;;;1.00;99.90;;;;;;4956936;29;20090;-90
2022/01/28 08:10:57;;;;;;;148.52;46.72;;;1.00;99.90;;;;;;4940293;29;20086;-89
2022/01/28 08:13:23;;;;;;;152.70;47.15;;;0.90;99.90;;;;;;4939968;29;20042;-89
2022/01/28 08:16:08;;;;;;;140.13;43.15;;;0.90;99.90;;;;;;4939511;28;20031;-89
2022/01/28 08:18:33;;;;;;;150.98;44.88;;;0.90;99.90;;;;;;4979842;28;20049;-89
2022/01/28 08:20:59;;;;;;;138.68;44.50;;;0.90;99.90;;;;;;4956987;28;20046;-89
2022/01/28 08:23:25;;;;;;;149.55;47.40;;;0.90;99.90;;;;;;4951973;28;20039;-89
2022/01/28 08:25:54;;;;;;;153.18;47.05;;;0.90;99.90;;;;;;4959959;28;20031;-89
2022/01/28 08:28:19;;;;;;;155.30;46.28;;;0.90;99.90;;;;;;4959074;28;20038;-90
2022/01/28 08:30:45;;;;;;;176.82;48.65;;;0.90;99.90;;;;;;4958133;28;20039;-88
2022/01/28 08:33:11;;;;;;;146.25;46.00;;;1.00;99.90;;;;;;4959380;28;20121;-90
2022/01/28 08:35:39;;;;;;;157.73;47.17;;;1.00;99.90;;;;;;4952406;28;20035;-90
2022/01/28 08:38:13;;;;;;;140.80;46.65;;;1.00;99.90;;;;;;4936597;29;20035;-88
2022/01/28 08:40:40;;;;;;;164.02;45.95;;;1.10;99.90;;;;;;4937908;29;20044;-89
2022/01/28 08:43:34;;;;;;;139.57;44.70;;;1.00;99.90;;;;;;4936304;29;20059;-89
2022/01/28 08:45:59;;;;;;;137.70;44.88;;;1.00;99.90;;;;;;4941025;29;20476;-87
2022/01/28 08:48:25;;;;;;;147.02;45.60;;;1.10;99.90;;;;;;4955774;29;20124;-90
2022/01/28 08:50:51;;;;;;;135.32;43.33;;;1.20;99.90;;;;;;4955410;29;20031;-90
2022/01/28 08:53:18;;;;;;;135.25;41.58;;;1.20;99.90;;;;;;4951511;28;20040;-89
2022/01/28 08:55:44;;;;;;;142.13;48.75;;;1.10;99.90;;;;;;4936578;29;20039;-89
2022/01/28 08:58:12;;;;;;;137.40;44.28;;;1.20;99.90;;;;;;4936080;29;20038;-89
2022/01/28 09:00:38;;;;;;;141.80;44.70;;;1.30;99.90;;;;;;4936073;29;20047;-90
2022/01/28 09:03:04;;;;;;;140.23;43.78;;;1.30;99.90;;;;;;4936539;29;20087;-90
2022/01/28 09:05:30;;;;;;;121.93;40.65;;;1.30;99.90;;;;;;4936469;29;20028;-90
2022/01/28 09:07:56;;;;;;;111.10;37.05;;;1.30;99.90;;;;;;4936314;29;20535;-89
2022/01/28 09:10:29;;;;;;;127.40;38.20;;;1.30;99.90;;;;;;4936024;29;20034;-90
2022/01/28 09:15:27;;;;;;;109.32;36.30;;;1.20;99.90;;;;;;4951927;29;20027;-89
2022/01/28 09:17:52;;;;;;;126.65;38.40;;;1.20;99.90;;;;;;4936106;29;20030;-89
2022/01/28 09:20:22;;;;;;;105.68;38.13;;;1.30;99.90;;;;;;4936003;29;20544;-89
2022/01/28 09:22:47;;;;;;;102.00;37.53;;;1.30;99.90;;;;;;4936234;29;20420;-89
2022/01/28 09:25:14;;;;;;;110.93;38.60;;;1.30;99.90;;;;;;4938379;28;20442;-90
2022/01/28 09:27:40;;;;;;;88.65;33.42;;;1.30;99.90;;;;;;4957870;28;20129;-89
2022/01/28 09:30:06;;;;;;;103.60;36.17;;;1.30;99.90;;;;;;4957639;28;20030;-90
2022/01/28 09:32:32;;;;;;;106.47;34.00;;;1.30;99.90;;;;;;4962600;28;20038;-88
2022/01/28 09:34:58;;;;;;;89.82;31.27;;;1.30;99.90;;;;;;4954238;28;20039;-90
2022/01/28 09:37:24;;;;;;;93.95;32.17;;;1.40;99.90;;;;;;4954078;29;20395;-88
2022/01/28 09:39:50;;;;;;;79.18;32.30;;;1.40;99.90;;;;;;4954330;29;20046;-89
2022/01/28 09:42:19;;;;;;;81.95;31.77;;;1.50;99.90;;;;;;4954213;28;20042;-88
2022/01/28 09:44:45;;;;;;;74.82;27.13;;;1.50;99.90;;;;;;4954344;29;20042;-89
2022/01/28 09:47:12;;;;;;;78.13;27.67;;;1.40;99.90;;;;;;4954404;29;20035;-89
2022/01/28 09:49:39;;;;;;;72.50;28.45;;;1.30;99.90;;;;;;4954133;29;20041;-90
2022/01/28 09:52:09;;;;;;;84.55;29.73;;;1.30;99.90;;;;;;4954830;29;20058;-89
2022/01/28 09:54:35;;;;;;;74.75;26.77;;;1.30;99.90;;;;;;4937880;28;20825;-89
2022/01/28 09:57:03;;;;;;;77.05;27.17;;;1.40;99.90;;;;;;4955555;28;20039;-89
2022/01/28 09:59:29;;;;;;;73.38;26.10;;;1.30;99.90;;;;;;4953871;29;20034;-89
2022/01/28 10:01:55;;;;;;;65.28;26.00;;;1.30;99.90;;;;;;4954056;29;20121;-89
2022/01/28 10:04:22;;;;;;;73.85;27.15;;;1.30;99.90;;;;;;4954145;29;20046;-89
2022/01/28 10:06:48;;;;;;;67.22;25.67;;;1.30;99.90;;;;;;4953743;29;20053;-89
2022/01/28 10:09:18;;;;;;;69.32;24.55;;;1.30;99.90;;;;;;4953697;29;20118;-90
2022/01/28 10:11:48;;;;;;;73.22;26.05;;;1.30;99.90;;;;;;4954071;29;20039;-88
2022/01/28 10:14:17;;;;;;;59.75;25.75;;;1.30;99.90;;;;;;4953815;29;20090;-89
2022/01/28 10:17:04;;;;;;;58.95;25.10;;;1.30;99.90;;;;;;4953637;28;20117;-89
2022/01/28 10:19:40;;;;;;;68.18;27.13;;;1.30;99.90;;;;;;4954181;28;20039;-89
2022/01/28 10:22:19;;;;;;;81.00;28.10;;;1.40;99.90;;;;;;4937889;29;20031;-89
2022/01/28 10:24:45;;;;;;;71.50;27.92;;;1.40;99.90;;;;;;4953785;28;20031;-89
2022/01/28 10:27:14;;;;;;;77.63;29.02;;;1.40;99.90;;;;;;4954643;28;20387;-89
2022/01/28 10:29:42;;;;;;;61.70;25.67;;;1.40;99.90;;;;;;4956794;28;20061;-89
2022/01/28 10:32:10;;;;;;;70.35;27.10;;;1.50;99.90;;;;;;4956400;28;20042;-89
2022/01/28 10:34:44;;;;;;;78.93;29.75;;;1.60;99.90;;;;;;4956632;28;20051;-88
2022/01/28 10:37:29;;;;;;;111.95;44.42;;;1.60;99.90;;;;;;4956895;28;20618;-89
2022/01/28 10:40:09;;;;;;;74.82;30.10;;;1.50;99.90;;;;;;4915966;28;20038;-88
2022/01/28 10:42:53;;;;;;;73.53;28.80;;;1.50;99.90;;;;;;4939368;29;20342;-88
2022/01/28 10:45:36;;;;;;;58.55;25.08;;;1.60;99.90;;;;;;4930651;29;20114;-89
2022/01/28 10:48:03;;;;;;;69.22;26.50;;;1.60;99.90;;;;;;4935599;29;20031;-88
2022/01/28 10:50:37;;;;;;;57.88;22.73;;;1.70;99.90;;;;;;4934029;29;20028;-90
2022/01/28 10:53:08;;;;;;;59.97;25.33;;;1.90;99.90;;;;;;4934725;29;20428;-90
2022/01/28 10:55:39;;;;;;;63.22;22.98;;;1.90;99.90;;;;;;4954068;28;20027;-90
2022/01/28 10:58:17;;;;;;;52.13;22.73;;;1.70;99.90;;;;;;4940862;29;20032;-89
2022/01/28 11:00:46;;;;;;;52.65;21.52;;;1.70;99.90;;;;;;4954560;29;20030;-91
2022/01/28 11:03:14;;;;;;;56.42;23.05;;;1.60;99.90;;;;;;4951118;29;20035;-89
2022/01/28 11:05:40;;;;;;;65.40;25.65;;;1.60;99.90;;;;;;4967280;28;20106;-90
2022/01/28 11:08:08;;;;;;;60.85;22.45;;;1.50;99.90;;;;;;4956972;28;20086;-88
2022/01/28 11:10:35;;;;;;;56.92;23.65;;;1.60;99.90;;;;;;4951158;28;20480;-90
2022/01/28 11:13:02;;;;;;;72.47;26.08;;;1.80;99.90;;;;;;4953734;29;20043;-89
2022/01/28 11:15:31;;;;;;;55.65;23.15;;;2.10;99.90;;;;;;4954010;29;20027;-90
2022/01/28 11:17:59;;;;;;;52.65;21.23;;;2.30;99.90;;;;;;4952955;28;20387;-88
2022/01/28 11:20:31;;;;;;;54.65;21.17;;;2.40;99.90;;;;;;4937743;28;20039;-89
2022/01/28 11:23:35;;;;;;;53.10;21.30;;;2.50;99.90;;;;;;4944944;29;20034;-89
2022/01/28 11:26:34;;;;;;;51.40;20.75;;;2.60;99.90;;;;;;4966351;28;20083;-88
2022/01/28 11:29:08;;;;;;;41.72;16.45;;;2.60;99.90;;;;;;4934009;29;20047;-89
2022/01/28 11:31:56;;;;;;;46.53;16.00;;;2.30;99.90;;;;;;4945377;29;20396;-88
2022/01/28 11:34:24;;;;;;;43.65;17.02;;;2.30;99.90;;;;;;4949518;29;20512;-89
2022/01/28 11:37:16;;;;;;;46.60;20.77;;;2.40;99.90;;;;;;4956319;29;20042;-88
2022/01/28 11:39:46;;;;;;;41.42;16.52;;;2.40;99.90;;;;;;4940693;29;20039;-88
2022/01/28 11:42:31;;;;;;;47.83;17.05;;;2.40;99.90;;;;;;4956240;28;20035;-88
2022/01/28 11:44:59;;;;;;;34.45;15.55;;;2.50;99.90;;;;;;4940592;29;20151;-89
2022/01/28 11:47:25;;;;;;;36.45;15.43;;;2.70;99.90;;;;;;4972770;28;20530;-88
2022/01/28 11:50:18;;;;;;;42.97;15.15;;;2.80;99.90;;;;;;4940658;29;20039;-88
2022/01/28 11:52:45;;;;;;;31.98;12.15;;;2.90;99.90;;;;;;4954461;28;20190;-89
2022/01/28 11:55:14;;;;;;;30.95;13.68;;;3.10;99.90;;;;;;4940781;29;20034;-89
2022/01/28 11:58:13;;;;;;;38.03;15.88;;;3.10;99.90;;;;;;4940467;29;20031;-90
2022/01/28 12:00:40;;;;;;;36.97;11.65;;;3.30;99.90;;;;;;4949040;29;20039;-88
2022/01/28 12:03:18;;;;;;;26.77;9.13;;;3.40;99.90;;;;;;4955486;29;20408;-90
2022/01/28 12:05:44;;;;;;;31.42;11.45;;;3.50;99.90;;;;;;4947217;28;20041;-89
2022/01/28 12:08:11;;;;;;;25.48;10.20;;;3.50;99.90;;;;;;4940275;29;20129;-90
2022/01/28 12:10:42;;;;;;;31.25;10.55;;;3.40;99.90;;;;;;4940547;29;20035;-89
2022/01/28 12:13:14;;;;;;;28.15;10.45;;;3.30;99.90;;;;;;4940186;29;20237;-89
2022/01/28 12:16:09;;;;;;;24.52;9.63;;;3.30;99.90;;;;;;4940729;29;20126;-89
2022/01/28 12:18:43;;;;;;;27.77;11.50;;;3.30;99.90;;;;;;4940324;29;20028;-89
2022/01/28 12:21:13;;;;;;;26.55;9.35;;;3.20;99.90;;;;;;4935568;29;20027;-91
2022/01/28 12:23:39;;;;;;;29.00;11.13;;;3.30;99.90;;;;;;4930655;29;20504;-88
2022/01/28 12:26:05;;;;;;;28.38;9.68;;;3.30;99.90;;;;;;4954570;28;20039;-89
2022/01/28 12:28:30;;;;;;;23.20;9.25;;;3.50;99.90;;;;;;4955273;29;20480;-90
2022/01/28 12:31:01;;;;;;;22.05;7.93;;;3.60;99.90;;;;;;4951145;28;20058;-91
2022/01/28 12:33:37;;;;;;;18.30;6.93;;;3.50;99.90;;;;;;4947369;28;20031;-90
2022/01/28 12:36:11;;;;;;;15.27;6.53;;;3.40;99.90;;;;;;4955800;28;20042;-90
2022/01/28 12:38:44;;;;;;;32.72;8.88;;;3.40;99.90;;;;;;4953058;29;20031;-91
2022/01/28 12:41:16;;;;;;;26.65;9.18;;;3.30;99.90;;;;;;4964127;28;20031;-89
2022/01/28 12:43:42;;;;;;;30.55;10.70;;;3.30;99.90;;;;;;4945011;29;20073;-91
2022/01/28 12:46:12;;;;;;;26.48;9.77;;;3.10;99.90;;;;;;4949242;29;20543;-89
2022/01/28 12:48:46;;;;;;;30.58;11.90;;;3.00;99.90;;;;;;4939150;29;20042;-88
2022/01/28 12:51:13;;;;;;;32.78;8.43;;;3.00;99.90;;;;;;4939309;29;20044;-90
2022/01/28 12:53:45;;;;;;;20.45;6.88;;;3.00;99.90;;;;;;4955093;28;20031;-89
2022/01/28 12:56:13;;;;;;;23.33;8.50;;;3.00;99.90;;;;;;4952662;29;20102;-89
2022/01/28 12:58:46;;;;;;;23.63;7.15;;;3.00;99.90;;;;;;4932842;29;20067;-89
2022/01/28 13:01:17;;;;;;;27.50;7.63;;;3.00;99.90;;;;;;4948301;28;20118;-89
2022/01/28 13:04:00;;;;;;;20.10;6.85;;;3.10;99.90;;;;;;4955019;29;20051;-88
2022/01/28 13:06:42;;;;;;;34.05;8.43;;;3.20;99.90;;;;;;4955544;29;20038;-90
2022/01/28 13:09:16;;;;;;;19.35;6.82;;;3.10;99.90;;;;;;4955166;29;20043;-89
2022/01/28 13:12:20;;;;;;;17.15;5.75;;;3.10;99.90;;;;;;4955545;29;20043;-90
2022/01/28 13:14:46;;;;;;;21.13;6.68;;;3.20;99.90;;;;;;4955783;28;20525;-91
2022/01/28 13:17:23;;;;;;;19.38;6.78;;;3.20;99.90;;;;;;4955227;28;20130;-90
2022/01/28 13:20:00;;;;;;;16.38;5.43;;;3.20;99.90;;;;;;4955869;29;20035;-90
2022/01/28 13:22:29;;;;;;;21.60;5.40;;;3.30;99.90;;;;;;4955447;28;20043;-90
2022/01/28 13:24:56;;;;;;;25.63;5.05;;;3.30;99.90;;;;;;4955333;28;20379;-91
2022/01/28 13:27:37;;;;;;;17.65;4.60;;;3.40;99.90;;;;;;4955982;29;20079;-91
2022/01/28 13:30:13;;;;;;;20.38;6.88;;;3.40;99.90;;;;;;4955915;29;20027;-91
2022/01/28 13:32:42;;;;;;;19.98;5.18;;;3.30;99.90;;;;;;4955325;29;20153;-91
2022/01/28 13:35:17;;;;;;;14.98;5.25;;;3.30;99.90;;;;;;4955690;29;20101;-90
2022/01/28 13:37:53;;;;;;;18.50;5.43;;;3.20;99.90;;;;;;4955099;29;20027;-91
2022/01/28 13:40:23;;;;;;;18.27;5.13;;;3.20;99.90;;;;;;4955004;28;20396;-91
2022/01/28 13:43:11;;;;;;;13.93;4.43;;;3.20;99.90;;;;;;4954777;28;20090;-90
2022/01/28 13:45:50;;;;;;;17.67;4.03;;;3.10;99.90;;;;;;4935579;29;20146;-91
2022/01/28 13:48:31;;;;;;;16.70;6.05;;;3.20;99.90;;;;;;4954437;28;20042;-91
2022/01/28 13:51:23;;;;;;;20.40;5.63;;;3.20;99.90;;;;;;4954778;29;20066;-90
2022/01/28 13:56:46;;;;;;;16.27;5.10;;;3.40;99.90;;;;;;4971582;28;20042;-91
2022/01/28 13:59:16;;;;;;;17.95;4.82;;;3.40;99.90;;;;;;4954436;28;20131;-91
2022/01/28 14:01:50;;;;;;;23.00;4.78;;;3.40;99.90;;;;;;4954315;29;20468;-89
2022/01/28 14:04:23;;;;;;;16.23;5.07;;;3.30;99.90;;;;;;4954349;29;20035;-88
2022/01/28 14:07:07;;;;;;;17.67;5.93;;;3.30;99.90;;;;;;4966196;28;20039;-89
2022/01/28 14:10:13;;;;;;;12.02;5.15;;;3.30;99.90;;;;;;4973734;28;20046;-89
2022/01/28 14:12:44;;;;;;;17.80;4.80;;;3.20;99.90;;;;;;4957565;28;20034;-90
2022/01/28 14:15:26;;;;;;;;;;;3.10;99.90;;;;;;4990532;28;20054;-90
2022/01/28 14:17:52;;;;;;;18.35;4.40;;;3.20;99.90;;;;;;4973507;28;20008;-89
2022/01/28 14:20:18;;;;;;;15.88;3.95;;;3.20;99.90;;;;;;4957240;28;20399;-90
2022/01/28 14:22:43;;;;;;;13.10;4.25;;;3.30;99.90;;;;;;4938255;29;20130;-88
2022/01/28 14:25:09;;;;;;;18.02;3.97;;;3.40;99.90;;;;;;4938223;29;20029;-89
2022/01/28 14:30:15;;;;;;;24.92;4.80;;;3.50;99.90;;;;;;4953221;28;20035;-88
2022/01/28 14:32:41;;;;;;;11.82;3.53;;;3.60;99.90;;;;;;4937450;29;20130;-89
2022/01/28 14:35:07;;;;;;;20.33;5.55;;;3.80;99.90;;;;;;4937915;29;20050;-89
2022/01/28 14:37:38;;;;;;;16.30;5.03;;;4.00;99.90;;;;;;4921976;29;20106;-89
2022/01/28 14:40:09;;;;;;;27.48;4.68;;;4.30;99.90;;;;;;4953887;28;20465;-89